sensor_id;sensor_type;location;lat;lon;timestamp;P1;durP1;ratioP1;P2;durP2;ratioP2
27580;SDS011;15013;52.298;7.978;2022-08-16T00:02:50;42.22;;;31.30;;
27580;SDS011;15013;52.298;7.978;2022-08-16T00:07:51;39.33;;;31.10;;
27580;SDS011;15013;52.298;7.978;2022-08-16T00:12:52;41.42;;;31.42;;
27580;SDS011;15013;52.298;7.978;2022-08-16T00:17:52;41.35;;;32.05;;
27580;SDS011;15013;52.298;7.978;2022-08-16T00:22:52;34.57;;;29.00;;
27580;SDS011;15013;52.298;7.978;2022-08-16T00:27:53;42.77;;;31.10;;
27580;SDS011;15013;52.298;7.978;2022-08-16T00:32:54;36.50;;;30.63;;
27580;SDS011;15013;52.298;7.978;2022-08-16T00:37:55;40.33;;;31.27;;
27580;SDS011;15013;52.298;7.978;2022-08-16T00:42:56;41.83;;;32.15;;
27580;SDS011;15013;52.298;7.978;2022-08-16T00:47:56;40.93;;;32.00;;
27580;SDS011;15013;52.298;7.978;2022-08-16T00:52:57;39.70;;;33.53;;
27580;SDS011;15013;52.298;7.978;2022-08-16T00:57:57;36.73;;;30.70;;
27580;SDS011;15013;52.298;7.978;2022-08-16T01:02:59;34.67;;;30.85;;
27580;SDS011;15013;52.298;7.978;2022-08-16T01:08:00;39.08;;;31.95;;
27580;SDS011;15013;52.298;7.978;2022-08-16T01:13:09;38.17;;;32.25;;
27580;SDS011;15013;52.298;7.978;2022-08-16T01:18:11;35.97;;;31.17;;
27580;SDS011;15013;52.298;7.978;2022-08-16T01:23:23;34.42;;;30.55;;
27580;SDS011;15013;52.298;7.978;2022-08-16T01:28:25;37.83;;;32.28;;
27580;SDS011;15013;52.298;7.978;2022-08-16T01:33:26;37.38;;;31.52;;
27580;SDS011;15013;52.298;7.978;2022-08-16T01:38:34;36.95;;;32.45;;
27580;SDS011;15013;52.298;7.978;2022-08-16T01:43:37;37.10;;;31.13;;
27580;SDS011;15013;52.298;7.978;2022-08-16T01:48:38;34.80;;;28.63;;
27580;SDS011;15013;52.298;7.978;2022-08-16T01:53:39;32.70;;;27.33;;
27580;SDS011;15013;52.298;7.978;2022-08-16T01:58:52;35.35;;;30.05;;
27580;SDS011;15013;52.298;7.978;2022-08-16T02:03:54;33.97;;;28.13;;
27580;SDS011;15013;52.298;7.978;2022-08-16T02:08:55;37.13;;;29.60;;
27580;SDS011;15013;52.298;7.978;2022-08-16T02:13:55;35.83;;;30.27;;
27580;SDS011;15013;52.298;7.978;2022-08-16T02:18:58;40.08;;;32.20;;
27580;SDS011;15013;52.298;7.978;2022-08-16T02:23:59;39.33;;;32.97;;
27580;SDS011;15013;52.298;7.978;2022-08-16T02:29:00;40.95;;;34.35;;
27580;SDS011;15013;52.298;7.978;2022-08-16T02:34:02;44.55;;;36.42;;
27580;SDS011;15013;52.298;7.978;2022-08-16T02:39:13;44.90;;;33.58;;
27580;SDS011;15013;52.298;7.978;2022-08-16T02:44:13;44.00;;;36.20;;
27580;SDS011;15013;52.298;7.978;2022-08-16T02:49:18;39.72;;;33.97;;
27580;SDS011;15013;52.298;7.978;2022-08-16T02:54:19;39.13;;;33.75;;
27580;SDS011;15013;52.298;7.978;2022-08-16T02:59:22;40.95;;;33.47;;
27580;SDS011;15013;52.298;7.978;2022-08-16T03:04:22;35.20;;;31.20;;
27580;SDS011;15013;52.298;7.978;2022-08-16T03:09:23;35.60;;;31.33;;
27580;SDS011;15013;52.298;7.978;2022-08-16T03:14:27;39.97;;;33.80;;
27580;SDS011;15013;52.298;7.978;2022-08-16T03:19:32;39.25;;;32.20;;
27580;SDS011;15013;52.298;7.978;2022-08-16T03:24:33;46.25;;;36.90;;
27580;SDS011;15013;52.298;7.978;2022-08-16T03:29:33;38.58;;;33.40;;
27580;SDS011;15013;52.298;7.978;2022-08-16T03:34:36;35.15;;;31.00;;
27580;SDS011;15013;52.298;7.978;2022-08-16T03:39:37;36.80;;;31.35;;
27580;SDS011;15013;52.298;7.978;2022-08-16T03:44:38;46.33;;;31.02;;
27580;SDS011;15013;52.298;7.978;2022-08-16T03:49:40;36.90;;;31.85;;
27580;SDS011;15013;52.298;7.978;2022-08-16T03:54:41;33.72;;;28.65;;
27580;SDS011;15013;52.298;7.978;2022-08-16T03:59:41;40.20;;;33.33;;
27580;SDS011;15013;52.298;7.978;2022-08-16T04:04:45;40.58;;;34.00;;
27580;SDS011;15013;52.298;7.978;2022-08-16T04:09:46;37.28;;;32.33;;
27580;SDS011;15013;52.298;7.978;2022-08-16T04:14:47;40.28;;;33.85;;
27580;SDS011;15013;52.298;7.978;2022-08-16T04:19:48;45.28;;;35.03;;
27580;SDS011;15013;52.298;7.978;2022-08-16T04:24:50;41.10;;;32.97;;
27580;SDS011;15013;52.298;7.978;2022-08-16T04:29:50;42.95;;;32.47;;
27580;SDS011;15013;52.298;7.978;2022-08-16T04:34:51;39.92;;;33.25;;
27580;SDS011;15013;52.298;7.978;2022-08-16T04:39:51;42.97;;;35.55;;
27580;SDS011;15013;52.298;7.978;2022-08-16T04:44:53;36.30;;;31.52;;
27580;SDS011;15013;52.298;7.978;2022-08-16T04:49:54;36.80;;;32.70;;
27580;SDS011;15013;52.298;7.978;2022-08-16T04:54:55;40.83;;;35.55;;
27580;SDS011;15013;52.298;7.978;2022-08-16T04:59:55;40.53;;;33.42;;
27580;SDS011;15013;52.298;7.978;2022-08-16T05:04:56;49.17;;;36.22;;
27580;SDS011;15013;52.298;7.978;2022-08-16T05:09:56;44.70;;;36.15;;
27580;SDS011;15013;52.298;7.978;2022-08-16T05:14:57;44.75;;;35.67;;
27580;SDS011;15013;52.298;7.978;2022-08-16T05:19:57;41.87;;;35.80;;
27580;SDS011;15013;52.298;7.978;2022-08-16T05:25:00;49.35;;;35.22;;
27580;SDS011;15013;52.298;7.978;2022-08-16T05:30:00;35.15;;;28.90;;
27580;SDS011;15013;52.298;7.978;2022-08-16T05:35:03;37.10;;;31.05;;
27580;SDS011;15013;52.298;7.978;2022-08-16T05:40:08;33.67;;;30.15;;
27580;SDS011;15013;52.298;7.978;2022-08-16T05:45:10;35.60;;;29.45;;
27580;SDS011;15013;52.298;7.978;2022-08-16T05:50:11;34.55;;;28.92;;
27580;SDS011;15013;52.298;7.978;2022-08-16T05:55:12;29.77;;;26.38;;
27580;SDS011;15013;52.298;7.978;2022-08-16T06:00:13;28.70;;;24.20;;
27580;SDS011;15013;52.298;7.978;2022-08-16T06:05:15;26.63;;;22.90;;
27580;SDS011;15013;52.298;7.978;2022-08-16T06:10:17;27.80;;;23.20;;
27580;SDS011;15013;52.298;7.978;2022-08-16T06:15:18;25.30;;;21.98;;
27580;SDS011;15013;52.298;7.978;2022-08-16T06:20:24;24.75;;;22.13;;
27580;SDS011;15013;52.298;7.978;2022-08-16T06:25:27;26.35;;;21.13;;
27580;SDS011;15013;52.298;7.978;2022-08-16T06:30:29;24.42;;;21.90;;
27580;SDS011;15013;52.298;7.978;2022-08-16T06:35:33;23.35;;;20.63;;
27580;SDS011;15013;52.298;7.978;2022-08-16T06:40:34;23.15;;;20.80;;
27580;SDS011;15013;52.298;7.978;2022-08-16T06:45:35;21.73;;;19.52;;
27580;SDS011;15013;52.298;7.978;2022-08-16T06:50:53;20.60;;;18.23;;
27580;SDS011;15013;52.298;7.978;2022-08-16T06:55:56;20.98;;;18.77;;
27580;SDS011;15013;52.298;7.978;2022-08-16T07:01:01;23.35;;;17.92;;
27580;SDS011;15013;52.298;7.978;2022-08-16T07:11:14;23.75;;;16.65;;
27580;SDS011;15013;52.298;7.978;2022-08-16T07:16:15;20.60;;;16.95;;
27580;SDS011;15013;52.298;7.978;2022-08-16T07:21:18;21.55;;;16.42;;
27580;SDS011;15013;52.298;7.978;2022-08-16T07:26:20;19.52;;;16.00;;
27580;SDS011;15013;52.298;7.978;2022-08-16T07:31:23;19.38;;;15.63;;
27580;SDS011;15013;52.298;7.978;2022-08-16T07:36:23;17.98;;;15.18;;
27580;SDS011;15013;52.298;7.978;2022-08-16T07:41:25;17.67;;;15.70;;
27580;SDS011;15013;52.298;7.978;2022-08-16T07:46:30;25.97;;;17.53;;
27580;SDS011;15013;52.298;7.978;2022-08-16T07:51:32;19.77;;;16.70;;
27580;SDS011;15013;52.298;7.978;2022-08-16T07:56:34;24.55;;;16.73;;
27580;SDS011;15013;52.298;7.978;2022-08-16T08:01:36;18.17;;;16.45;;
27580;SDS011;15013;52.298;7.978;2022-08-16T08:06:40;19.08;;;15.52;;
27580;SDS011;15013;52.298;7.978;2022-08-16T08:11:45;17.83;;;14.93;;
27580;SDS011;15013;52.298;7.978;2022-08-16T08:16:49;16.30;;;14.23;;
27580;SDS011;15013;52.298;7.978;2022-08-16T08:22:01;19.20;;;14.75;;
27580;SDS011;15013;52.298;7.978;2022-08-16T08:27:16;17.33;;;14.60;;
27580;SDS011;15013;52.298;7.978;2022-08-16T08:32:19;15.70;;;14.00;;
27580;SDS011;15013;52.298;7.978;2022-08-16T08:37:20;14.80;;;13.18;;
27580;SDS011;15013;52.298;7.978;2022-08-16T08:42:21;13.45;;;12.00;;
27580;SDS011;15013;52.298;7.978;2022-08-16T08:47:23;13.38;;;11.57;;
27580;SDS011;15013;52.298;7.978;2022-08-16T08:52:24;16.88;;;12.68;;
27580;SDS011;15013;52.298;7.978;2022-08-16T08:57:25;17.55;;;13.95;;
27580;SDS011;15013;52.298;7.978;2022-08-16T09:02:48;12.65;;;10.90;;
27580;SDS011;15013;52.298;7.978;2022-08-16T09:07:51;11.68;;;10.32;;
27580;SDS011;15013;52.298;7.978;2022-08-16T09:12:51;13.55;;;11.45;;
27580;SDS011;15013;52.298;7.978;2022-08-16T09:17:55;12.55;;;9.93;;
27580;SDS011;15013;52.298;7.978;2022-08-16T09:22:59;11.80;;;9.63;;
27580;SDS011;15013;52.298;7.978;2022-08-16T09:28:10;12.48;;;9.10;;
27580;SDS011;15013;52.298;7.978;2022-08-16T09:33:17;8.77;;;7.88;;
27580;SDS011;15013;52.298;7.978;2022-08-16T09:38:17;8.37;;;7.57;;
27580;SDS011;15013;52.298;7.978;2022-08-16T09:43:18;10.93;;;7.63;;
27580;SDS011;15013;52.298;7.978;2022-08-16T09:48:19;8.18;;;7.05;;
27580;SDS011;15013;52.298;7.978;2022-08-16T09:53:20;10.75;;;6.88;;
27580;SDS011;15013;52.298;7.978;2022-08-16T09:58:23;7.28;;;6.57;;
27580;SDS011;15013;52.298;7.978;2022-08-16T10:03:23;8.00;;;6.47;;
27580;SDS011;15013;52.298;7.978;2022-08-16T10:08:23;10.63;;;6.73;;
27580;SDS011;15013;52.298;7.978;2022-08-16T10:13:24;7.03;;;6.43;;
27580;SDS011;15013;52.298;7.978;2022-08-16T10:18:28;8.27;;;7.27;;
27580;SDS011;15013;52.298;7.978;2022-08-16T10:28:29;9.52;;;7.65;;
27580;SDS011;15013;52.298;7.978;2022-08-16T10:33:30;8.30;;;7.38;;
27580;SDS011;15013;52.298;7.978;2022-08-16T10:38:36;8.95;;;7.38;;
27580;SDS011;15013;52.298;7.978;2022-08-16T10:43:37;7.95;;;7.13;;
27580;SDS011;15013;52.298;7.978;2022-08-16T10:48:40;7.72;;;7.00;;
27580;SDS011;15013;52.298;7.978;2022-08-16T10:53:41;7.43;;;6.72;;
27580;SDS011;15013;52.298;7.978;2022-08-16T10:58:41;7.77;;;6.20;;
27580;SDS011;15013;52.298;7.978;2022-08-16T11:03:41;16.88;;;6.57;;
27580;SDS011;15013;52.298;7.978;2022-08-16T11:08:42;10.18;;;6.35;;
27580;SDS011;15013;52.298;7.978;2022-08-16T11:13:43;7.93;;;5.73;;
27580;SDS011;15013;52.298;7.978;2022-08-16T11:18:46;9.73;;;5.65;;
27580;SDS011;15013;52.298;7.978;2022-08-16T11:23:49;8.68;;;5.80;;
27580;SDS011;15013;52.298;7.978;2022-08-16T11:28:50;10.23;;;5.95;;
27580;SDS011;15013;52.298;7.978;2022-08-16T11:33:50;8.20;;;5.63;;
27580;SDS011;15013;52.298;7.978;2022-08-16T11:38:51;8.73;;;6.10;;
27580;SDS011;15013;52.298;7.978;2022-08-16T11:43:51;9.85;;;6.57;;
27580;SDS011;15013;52.298;7.978;2022-08-16T11:48:52;8.00;;;5.73;;
27580;SDS011;15013;52.298;7.978;2022-08-16T11:53:54;7.75;;;6.20;;
27580;SDS011;15013;52.298;7.978;2022-08-16T11:58:54;9.38;;;6.90;;
27580;SDS011;15013;52.298;7.978;2022-08-16T12:03:54;9.47;;;6.70;;
27580;SDS011;15013;52.298;7.978;2022-08-16T12:08:56;8.85;;;6.13;;
27580;SDS011;15013;52.298;7.978;2022-08-16T12:13:56;7.05;;;5.40;;
27580;SDS011;15013;52.298;7.978;2022-08-16T12:18:58;6.90;;;6.20;;
27580;SDS011;15013;52.298;7.978;2022-08-16T12:23:58;7.67;;;5.33;;
27580;SDS011;15013;52.298;7.978;2022-08-16T12:28:59;8.47;;;6.50;;
27580;SDS011;15013;52.298;7.978;2022-08-16T12:34:01;9.15;;;6.15;;
27580;SDS011;15013;52.298;7.978;2022-08-16T12:39:02;8.30;;;5.60;;
27580;SDS011;15013;52.298;7.978;2022-08-16T12:44:03;7.38;;;5.68;;
27580;SDS011;15013;52.298;7.978;2022-08-16T12:49:04;8.10;;;5.40;;
27580;SDS011;15013;52.298;7.978;2022-08-16T12:54:05;9.15;;;5.72;;
27580;SDS011;15013;52.298;7.978;2022-08-16T12:59:08;9.60;;;5.57;;
27580;SDS011;15013;52.298;7.978;2022-08-16T13:04:08;7.50;;;5.50;;
27580;SDS011;15013;52.298;7.978;2022-08-16T13:09:09;10.18;;;6.00;;
27580;SDS011;15013;52.298;7.978;2022-08-16T13:14:25;9.80;;;5.88;;
27580;SDS011;15013;52.298;7.978;2022-08-16T13:19:26;7.20;;;5.03;;
27580;SDS011;15013;52.298;7.978;2022-08-16T13:24:26;6.80;;;4.93;;
27580;SDS011;15013;52.298;7.978;2022-08-16T13:29:27;5.23;;;4.63;;
27580;SDS011;15013;52.298;7.978;2022-08-16T13:34:27;6.77;;;4.80;;
27580;SDS011;15013;52.298;7.978;2022-08-16T13:39:27;5.77;;;5.20;;
27580;SDS011;15013;52.298;7.978;2022-08-16T13:44:30;5.63;;;5.13;;
27580;SDS011;15013;52.298;7.978;2022-08-16T13:49:31;8.98;;;5.20;;
27580;SDS011;15013;52.298;7.978;2022-08-16T13:54:32;6.90;;;5.68;;
27580;SDS011;15013;52.298;7.978;2022-08-16T13:59:32;7.68;;;6.18;;
27580;SDS011;15013;52.298;7.978;2022-08-16T14:04:36;6.63;;;5.57;;
27580;SDS011;15013;52.298;7.978;2022-08-16T14:09:36;7.73;;;5.70;;
27580;SDS011;15013;52.298;7.978;2022-08-16T14:14:37;10.00;;;6.15;;
27580;SDS011;15013;52.298;7.978;2022-08-16T14:19:37;7.10;;;5.77;;
27580;SDS011;15013;52.298;7.978;2022-08-16T14:24:38;12.13;;;5.83;;
27580;SDS011;15013;52.298;7.978;2022-08-16T14:29:38;8.75;;;5.72;;
27580;SDS011;15013;52.298;7.978;2022-08-16T14:34:39;8.90;;;5.90;;
27580;SDS011;15013;52.298;7.978;2022-08-16T14:39:39;6.25;;;5.68;;
27580;SDS011;15013;52.298;7.978;2022-08-16T14:44:40;9.02;;;5.90;;
27580;SDS011;15013;52.298;7.978;2022-08-16T14:49:41;8.07;;;6.23;;
27580;SDS011;15013;52.298;7.978;2022-08-16T14:54:42;6.32;;;5.82;;
27580;SDS011;15013;52.298;7.978;2022-08-16T14:59:43;6.45;;;5.80;;
27580;SDS011;15013;52.298;7.978;2022-08-16T15:04:43;11.75;;;5.55;;
27580;SDS011;15013;52.298;7.978;2022-08-16T15:09:44;8.68;;;5.68;;
27580;SDS011;15013;52.298;7.978;2022-08-16T15:14:45;7.47;;;6.70;;
27580;SDS011;15013;52.298;7.978;2022-08-16T15:19:47;6.22;;;5.38;;
27580;SDS011;15013;52.298;7.978;2022-08-16T15:24:49;6.05;;;5.45;;
27580;SDS011;15013;52.298;7.978;2022-08-16T15:29:49;8.63;;;6.10;;
27580;SDS011;15013;52.298;7.978;2022-08-16T15:34:50;10.37;;;7.07;;
27580;SDS011;15013;52.298;7.978;2022-08-16T15:39:50;7.22;;;6.47;;
27580;SDS011;15013;52.298;7.978;2022-08-16T15:44:53;7.43;;;6.68;;
27580;SDS011;15013;52.298;7.978;2022-08-16T15:49:54;7.88;;;6.60;;
27580;SDS011;15013;52.298;7.978;2022-08-16T15:54:54;8.75;;;7.15;;
27580;SDS011;15013;52.298;7.978;2022-08-16T15:59:56;9.48;;;6.32;;
27580;SDS011;15013;52.298;7.978;2022-08-16T16:04:58;8.32;;;7.00;;
27580;SDS011;15013;52.298;7.978;2022-08-16T16:09:59;10.20;;;6.35;;
27580;SDS011;15013;52.298;7.978;2022-08-16T16:14:59;8.85;;;6.75;;
27580;SDS011;15013;52.298;7.978;2022-08-16T16:20:00;12.03;;;7.20;;
27580;SDS011;15013;52.298;7.978;2022-08-16T16:25:00;7.43;;;6.67;;
27580;SDS011;15013;52.298;7.978;2022-08-16T16:30:00;11.13;;;7.03;;
27580;SDS011;15013;52.298;7.978;2022-08-16T16:35:02;8.02;;;6.68;;
27580;SDS011;15013;52.298;7.978;2022-08-16T16:40:03;10.73;;;6.70;;
27580;SDS011;15013;52.298;7.978;2022-08-16T16:45:04;8.00;;;6.60;;
27580;SDS011;15013;52.298;7.978;2022-08-16T16:50:05;6.40;;;5.90;;
27580;SDS011;15013;52.298;7.978;2022-08-16T16:55:05;7.20;;;6.05;;
27580;SDS011;15013;52.298;7.978;2022-08-16T17:00:08;13.00;;;9.98;;
27580;SDS011;15013;52.298;7.978;2022-08-16T17:05:10;6.93;;;5.65;;
27580;SDS011;15013;52.298;7.978;2022-08-16T17:10:11;7.20;;;6.50;;
27580;SDS011;15013;52.298;7.978;2022-08-16T17:15:12;6.80;;;6.15;;
27580;SDS011;15013;52.298;7.978;2022-08-16T17:20:12;8.37;;;7.53;;
27580;SDS011;15013;52.298;7.978;2022-08-16T17:25:13;9.68;;;7.57;;
27580;SDS011;15013;52.298;7.978;2022-08-16T17:30:19;13.73;;;7.65;;
27580;SDS011;15013;52.298;7.978;2022-08-16T17:35:33;12.07;;;6.85;;
27580;SDS011;15013;52.298;7.978;2022-08-16T17:40:35;8.93;;;6.57;;
27580;SDS011;15013;52.298;7.978;2022-08-16T17:45:37;8.15;;;6.47;;
27580;SDS011;15013;52.298;7.978;2022-08-16T17:50:39;8.23;;;7.13;;
27580;SDS011;15013;52.298;7.978;2022-08-16T17:55:41;7.28;;;6.57;;
27580;SDS011;15013;52.298;7.978;2022-08-16T18:00:42;9.05;;;7.80;;
27580;SDS011;15013;52.298;7.978;2022-08-16T18:05:44;10.57;;;8.25;;
27580;SDS011;15013;52.298;7.978;2022-08-16T18:10:46;10.82;;;7.72;;
27580;SDS011;15013;52.298;7.978;2022-08-16T18:15:47;9.32;;;8.15;;
27580;SDS011;15013;52.298;7.978;2022-08-16T18:20:50;10.43;;;7.57;;
27580;SDS011;15013;52.298;7.978;2022-08-16T18:26:09;9.90;;;7.43;;
27580;SDS011;15013;52.298;7.978;2022-08-16T18:31:10;9.77;;;8.57;;
27580;SDS011;15013;52.298;7.978;2022-08-16T18:36:10;9.93;;;7.65;;
27580;SDS011;15013;52.298;7.978;2022-08-16T18:41:11;10.93;;;8.18;;
27580;SDS011;15013;52.298;7.978;2022-08-16T18:46:11;11.93;;;7.73;;
27580;SDS011;15013;52.298;7.978;2022-08-16T18:51:11;9.95;;;8.70;;
27580;SDS011;15013;52.298;7.978;2022-08-16T18:56:13;9.35;;;8.45;;
27580;SDS011;15013;52.298;7.978;2022-08-16T19:01:14;13.13;;;8.27;;
27580;SDS011;15013;52.298;7.978;2022-08-16T19:06:14;9.87;;;8.67;;
27580;SDS011;15013;52.298;7.978;2022-08-16T19:11:16;9.07;;;8.25;;
27580;SDS011;15013;52.298;7.978;2022-08-16T19:16:22;9.80;;;8.82;;
27580;SDS011;15013;52.298;7.978;2022-08-16T19:21:22;12.73;;;8.67;;
27580;SDS011;15013;52.298;7.978;2022-08-16T19:26:23;8.88;;;7.93;;
27580;SDS011;15013;52.298;7.978;2022-08-16T19:31:27;10.57;;;9.43;;
27580;SDS011;15013;52.298;7.978;2022-08-16T19:36:32;12.15;;;10.75;;
27580;SDS011;15013;52.298;7.978;2022-08-16T19:41:33;120.27;;;37.87;;
27580;SDS011;15013;52.298;7.978;2022-08-16T19:46:34;46.72;;;17.92;;
27580;SDS011;15013;52.298;7.978;2022-08-16T19:51:35;47.92;;;14.68;;
27580;SDS011;15013;52.298;7.978;2022-08-16T19:56:35;17.52;;;9.90;;
27580;SDS011;15013;52.298;7.978;2022-08-16T20:01:36;27.07;;;15.07;;
27580;SDS011;15013;52.298;7.978;2022-08-16T20:06:36;18.02;;;10.57;;
27580;SDS011;15013;52.298;7.978;2022-08-16T20:11:37;23.83;;;12.60;;
27580;SDS011;15013;52.298;7.978;2022-08-16T20:16:37;27.30;;;13.23;;
27580;SDS011;15013;52.298;7.978;2022-08-16T20:21:37;23.67;;;14.60;;
27580;SDS011;15013;52.298;7.978;2022-08-16T20:26:38;29.93;;;13.97;;
27580;SDS011;15013;52.298;7.978;2022-08-16T20:31:38;23.77;;;12.80;;
27580;SDS011;15013;52.298;7.978;2022-08-16T20:36:38;18.27;;;12.67;;
27580;SDS011;15013;52.298;7.978;2022-08-16T20:41:40;37.67;;;19.07;;
27580;SDS011;15013;52.298;7.978;2022-08-16T20:46:40;57.45;;;21.00;;
27580;SDS011;15013;52.298;7.978;2022-08-16T20:51:41;30.67;;;16.60;;
27580;SDS011;15013;52.298;7.978;2022-08-16T20:56:41;22.30;;;15.43;;
27580;SDS011;15013;52.298;7.978;2022-08-16T21:01:41;12.70;;;11.37;;
27580;SDS011;15013;52.298;7.978;2022-08-16T21:06:42;17.07;;;13.03;;
27580;SDS011;15013;52.298;7.978;2022-08-16T21:11:43;43.70;;;19.60;;
27580;SDS011;15013;52.298;7.978;2022-08-16T21:16:44;25.98;;;17.17;;
27580;SDS011;15013;52.298;7.978;2022-08-16T21:21:44;35.40;;;20.20;;
27580;SDS011;15013;52.298;7.978;2022-08-16T21:26:45;32.83;;;20.83;;
27580;SDS011;15013;52.298;7.978;2022-08-16T21:31:45;32.90;;;19.95;;
27580;SDS011;15013;52.298;7.978;2022-08-16T21:36:46;35.58;;;21.63;;
27580;SDS011;15013;52.298;7.978;2022-08-16T21:41:47;37.83;;;21.80;;
27580;SDS011;15013;52.298;7.978;2022-08-16T21:46:48;36.43;;;21.23;;
27580;SDS011;15013;52.298;7.978;2022-08-16T21:51:48;47.58;;;22.15;;
27580;SDS011;15013;52.298;7.978;2022-08-16T21:56:48;36.53;;;21.97;;
27580;SDS011;15013;52.298;7.978;2022-08-16T22:01:49;20.30;;;17.90;;
27580;SDS011;15013;52.298;7.978;2022-08-16T22:06:49;29.90;;;19.87;;
27580;SDS011;15013;52.298;7.978;2022-08-16T22:11:49;34.20;;;23.40;;
27580;SDS011;15013;52.298;7.978;2022-08-16T22:16:50;43.70;;;23.20;;
27580;SDS011;15013;52.298;7.978;2022-08-16T22:21:51;19.73;;;17.77;;
27580;SDS011;15013;52.298;7.978;2022-08-16T22:26:51;19.57;;;17.63;;
27580;SDS011;15013;52.298;7.978;2022-08-16T22:31:51;25.57;;;20.33;;
27580;SDS011;15013;52.298;7.978;2022-08-16T22:36:52;24.83;;;22.30;;
27580;SDS011;15013;52.298;7.978;2022-08-16T22:41:52;25.95;;;19.65;;
27580;SDS011;15013;52.298;7.978;2022-08-16T22:46:53;23.00;;;20.55;;
27580;SDS011;15013;52.298;7.978;2022-08-16T22:51:53;27.20;;;21.70;;
27580;SDS011;15013;52.298;7.978;2022-08-16T22:56:54;24.80;;;21.75;;
27580;SDS011;15013;52.298;7.978;2022-08-16T23:01:56;24.58;;;21.60;;
27580;SDS011;15013;52.298;7.978;2022-08-16T23:06:57;25.40;;;21.98;;
27580;SDS011;15013;52.298;7.978;2022-08-16T23:11:59;25.33;;;22.70;;
27580;SDS011;15013;52.298;7.978;2022-08-16T23:17:00;25.80;;;22.90;;
27580;SDS011;15013;52.298;7.978;2022-08-16T23:22:00;25.90;;;23.20;;
27580;SDS011;15013;52.298;7.978;2022-08-16T23:27:01;24.80;;;22.27;;
27580;SDS011;15013;52.298;7.978;2022-08-16T23:32:07;26.40;;;21.77;;
27580;SDS011;15013;52.298;7.978;2022-08-16T23:37:09;27.83;;;23.25;;
27580;SDS011;15013;52.298;7.978;2022-08-16T23:42:11;32.73;;;24.33;;
27580;SDS011;15013;52.298;7.978;2022-08-16T23:47:12;35.33;;;27.25;;
27580;SDS011;15013;52.298;7.978;2022-08-16T23:52:12;42.77;;;29.70;;
27580;SDS011;15013;52.298;7.978;2022-08-16T23:57:13;36.77;;;29.47;;
